Ridgecrest, CA (93555)

2:35 AM PDT on September 20, 2014 (GMT -0700)
College Hts off W. Kendall | Change Station
CLOSE
Current Station
Personal Weather Station
Location: Ridgecrest, CA
Elevation: 2460 ft
Nearby Weather Stations

Elev 2460 ft 35.59 °N, 117.67 °W | Updated 32 seconds ago

Clear
Clear
71.6 °F
Feels Like 76 °F
N
0.0
Wind Variable Wind from SSW
Gusts 0.0 mph

Today
High -- | Low -- °F
--% Chance of Precip.
Yesterday
High -- | Low -- °F
Precip. -- in
6:37 AM 6:50 PM
Waning Crescent, 13% visible
Pressure 29.85 in
Visibility 10.0 miles
Clouds Clear
Heat Index 76 °F
Dew Point 38 °F
Humidity 30%
Rainfall 0.00 in
Snow Depth 0 in , 0 in , 0 in
UV 0 out of 12
Pollen 6.60 out of 12
Air Quality Not available.
Flu Activity Not available.
METAR KNID 200856Z AUTO 21006KT 10SM CLR 20/02 A2990 RMK AO2 SLP107 T02000022 53007 $

More Conditions Fewer Conditions

Pressure 29.85 in
Visibility 10.0 miles
Clouds Clear
Heat Index 76 °F
Dew Point 38 °F
Humidity 30%
Rainfall 0.00 in
Snow Depth 0 in , 0 in , 0 in
UV 0 out of 12
Pollen 6.60 out of 12
Air Quality Not available.
Flu Activity Not available.
METAR KNID 200856Z AUTO 21006KT 10SM CLR 20/02 A2990 RMK AO2 SLP107 T02000022 53007 $

More Conditions Fewer Conditions

10-Day Weather Forecast

Almanac

Astronomy

Sep. 20, 2014 Rise Set
Actual Time 6:37 AM PDT 6:50 PM PDT
Civil Twilight 6:11 AM PDT 7:15 PM PDT
Nautical Twilight 5:41 AM PDT 7:45 PM PDT
Astronomical Twilight 5:11 AM PDT 8:15 PM PDT
Moon 3:26 AM PDT 4:51 PM PDT
Length of Visible Light 13h 04m
Length of Day
12h 13m
Tomorrow will be 2m 13s shorter.
Waning Crescent, 13% of the Moon is Illuminated
Today
Waning Crescent
Sep 24
New
Oct 1
First Quarter
Oct 8
Full
Oct 15
Last Quarter

Today's Extremes

State Highs State Lows

Community

WunderPhotos

Upload Photos

1,754,794 photos uploaded!

WunderBlogs® & News

Nearby

Snow Depth

Station Depth Elevation
Burnside Lake 0 in 8139 ft
Tahoe City Cross 0 in 6750 ft
Blue Lakes 0 in 8000 ft
Summit Meadow 1 in 9122 ft
Leavitt Meadows 1 in 7200 ft

Earthquake Activity

City Distance Mag. Time & Date
Inyokern, California 32 miles 3.1 5:33 PM PDT
2014-09-19
Corcoran, California 114 miles 2.9 3:59 PM PDT
2014-09-18
Minimum magnitude displayed is 2.5.

Coastal Water Temperatures

Place Temperature
No Stations Reporting

Nearby Weather Stations